createdAt,value
2016-12-09T00:00:31.464Z,16.96
2016-12-09T00:01:41.447Z,17.15
2016-12-09T00:02:51.399Z,16.96
2016-12-09T00:04:01.677Z,17.05
2016-12-09T00:05:11.661Z,17.05
2016-12-09T00:06:21.939Z,16.96
2016-12-09T00:07:32.204Z,17.15
2016-12-09T00:08:42.157Z,17.15
2016-12-09T00:09:52.125Z,16.77
2016-12-09T00:11:01.776Z,16.96
2016-12-09T00:12:12.048Z,16.96
2016-12-09T00:13:22.307Z,16.96
2016-12-09T00:14:32.588Z,16.86
2016-12-09T00:15:42.851Z,16.77
2016-12-09T00:16:52.800Z,16.77
2016-12-09T00:18:03.068Z,16.77
2016-12-09T00:19:13.033Z,16.77
2016-12-09T00:20:23.289Z,16.77
2016-12-09T00:21:33.574Z,16.77
2016-12-09T00:22:43.881Z,16.77
2016-12-09T00:23:53.538Z,16.67
2016-12-09T00:25:03.193Z,16.77
2016-12-09T00:26:13.455Z,16.67
2016-12-09T00:27:22.805Z,16.86
2016-12-09T00:28:33.090Z,16.77
2016-12-09T00:29:43.045Z,16.77
2016-12-09T00:30:53.311Z,16.77
2016-12-09T00:32:03.571Z,16.77
2016-12-09T00:33:13.228Z,16.77
2016-12-09T00:34:23.202Z,16.86
2016-12-09T00:35:33.170Z,16.67
2016-12-09T00:36:43.119Z,16.67
2016-12-09T00:37:53.685Z,16.77
2016-12-09T00:39:03.650Z,16.57
2016-12-09T00:40:13.624Z,16.77
2016-12-09T00:41:23.906Z,16.77
2016-12-09T00:42:33.551Z,16.67
2016-12-09T00:43:43.809Z,16.86
2016-12-09T00:44:53.465Z,16.86
2016-12-09T00:46:03.420Z,16.86
2016-12-09T00:47:13.727Z,16.67
2016-12-09T00:48:24.021Z,16.77
2016-12-09T00:49:33.989Z,16.86
2016-12-09T00:50:43.656Z,16.77
2016-12-09T00:51:53.310Z,16.86
2016-12-09T00:53:03.589Z,16.86
2016-12-09T00:54:13.230Z,16.77
2016-12-09T00:55:23.183Z,16.57
2016-12-09T00:56:32.840Z,16.67
2016-12-09T00:57:42.808Z,16.47
2016-12-09T00:58:52.759Z,16.47
2016-12-09T01:00:02.721Z,16.47
2016-12-09T01:01:12.981Z,16.77
2016-12-09T01:02:22.958Z,16.47
2016-12-09T01:03:33.222Z,16.57
2016-12-09T01:04:43.176Z,16.57
2016-12-09T01:05:53.432Z,16.28
2016-12-09T01:07:04.014Z,16.57
2016-12-09T01:08:14.293Z,16.47
2016-12-09T01:09:24.248Z,16.57
2016-12-09T01:10:33.585Z,16.57
2016-12-09T01:11:43.854Z,16.57
2016-12-09T01:12:54.115Z,16.47
2016-12-09T01:14:04.382Z,16.67
2016-12-09T01:15:14.651Z,16.47
2016-12-09T01:16:24.917Z,16.38
2016-12-09T01:17:35.182Z,16.28
2016-12-09T01:18:45.758Z,16.47
2016-12-09T01:19:56.037Z,16.57
2016-12-09T01:21:05.694Z,16.67
2016-12-09T01:22:15.647Z,16.67
2016-12-09T01:23:25.911Z,16.57
2016-12-09T01:24:35.554Z,16.57
2016-12-09T01:25:45.207Z,16.67
2016-12-09T01:26:54.856Z,16.57
2016-12-09T01:28:05.131Z,16.57
2016-12-09T01:29:15.092Z,16.77
2016-12-09T01:30:25.364Z,16.67
2016-12-09T01:31:35.508Z,16.47
2016-12-09T01:32:45.774Z,16.47
2016-12-09T01:33:55.735Z,16.57
2016-12-09T01:35:06.007Z,16.67
2016-12-09T01:36:15.645Z,16.67
2016-12-09T01:37:25.917Z,16.67
2016-12-09T01:38:35.882Z,16.57
2016-12-09T01:39:46.148Z,16.57
2016-12-09T01:40:56.103Z,16.47
2016-12-09T01:42:06.676Z,16.38
2016-12-09T01:43:16.938Z,16.38
2016-12-09T01:44:27.210Z,16.57
2016-12-09T01:45:37.483Z,16.57
2016-12-09T01:46:47.744Z,16.47
2016-12-09T01:47:58.305Z,16.47
2016-12-09T01:49:08.574Z,16.38
2016-12-09T01:50:18.528Z,16.38
2016-12-09T01:51:28.805Z,16.47
2016-12-09T01:52:39.076Z,16.47
2016-12-09T01:53:49.018Z,16.38
2016-12-09T01:54:59.302Z,16.38
2016-12-09T01:56:09.591Z,16.38
2016-12-09T01:57:19.549Z,16.47
2016-12-09T01:58:29.507Z,16.09
2016-12-09T01:59:39.763Z,16.57
2016-12-09T02:00:49.735Z,16.09
2016-12-09T02:01:59.690Z,16.09
2016-12-09T02:03:09.952Z,16.09
2016-12-09T02:04:19.910Z,16.47
2016-12-09T02:05:30.490Z,16.57
2016-12-09T02:06:40.448Z,16.47
2016-12-09T02:07:50.736Z,16.57
2016-12-09T02:09:01.008Z,16.47
2016-12-09T02:10:11.284Z,16.47
2016-12-09T02:11:21.584Z,16.57
2016-12-09T02:12:31.847Z,16.38
2016-12-09T02:13:42.115Z,16.57
2016-12-09T02:14:52.067Z,16.28
2016-12-09T02:16:02.323Z,16.28
2016-12-09T02:17:12.906Z,16.09
2016-12-09T02:18:23.171Z,16.57
2016-12-09T02:19:33.440Z,16.09
2016-12-09T02:20:43.398Z,16.38
2016-12-09T02:21:53.375Z,16.19
2016-12-09T02:23:03.945Z,16.09
2016-12-09T02:24:13.898Z,16.19
2016-12-09T02:25:23.847Z,16.38
2016-12-09T02:26:34.105Z,16.09
2016-12-09T02:27:44.368Z,16.19
2016-12-09T02:28:54.322Z,16.19
2016-12-09T02:30:04.294Z,16.09
2016-12-09T02:31:13.631Z,15.8
2016-12-09T02:32:23.280Z,15.8
2016-12-09T02:33:33.241Z,16.09
2016-12-09T02:34:43.808Z,16.09
2016-12-09T02:35:54.073Z,15.99
2016-12-09T02:37:04.044Z,15.9
2016-12-09T02:38:14.307Z,15.9
2016-12-09T02:39:24.568Z,15.99
2016-12-09T02:40:35.138Z,15.9
2016-12-09T02:41:44.780Z,15.9
2016-12-09T02:42:55.043Z,15.9
2016-12-09T02:44:05.305Z,16.38
2016-12-09T02:45:15.588Z,15.9
2016-12-09T02:46:25.540Z,15.9
2016-12-09T02:47:35.808Z,15.9
2016-12-09T02:48:45.768Z,15.99
2016-12-09T02:49:56.030Z,15.8
2016-12-09T02:51:06.025Z,15.99
2016-12-09T02:52:16.278Z,16.19
2016-12-09T02:53:26.229Z,15.99
2016-12-09T02:54:36.524Z,15.99
2016-12-09T02:55:46.783Z,15.8
2016-12-09T02:56:57.064Z,15.99
2016-12-09T02:58:07.628Z,16.09
2016-12-09T02:59:17.900Z,16.09
2016-12-09T03:00:27.866Z,16.09
2016-12-09T03:01:38.137Z,16.28
2016-12-09T03:02:48.088Z,16.28
2016-12-09T03:03:58.645Z,16.19
2016-12-09T03:05:08.898Z,16.19
2016-12-09T03:06:18.556Z,16.38
2016-12-09T03:07:28.507Z,16.09
2016-12-09T03:08:38.459Z,16.19
2016-12-09T03:09:48.421Z,16.28
2016-12-09T03:10:58.382Z,16.19
2016-12-09T03:12:08.660Z,16.38
2016-12-09T03:13:18.930Z,16.28
2016-12-09T03:14:28.882Z,16.28
2016-12-09T03:15:39.448Z,16.19
2016-12-09T03:16:49.106Z,16.19
2016-12-09T03:17:59.371Z,16.19
2016-12-09T03:19:08.716Z,16.19
2016-12-09T03:20:18.981Z,16.09
2016-12-09T03:21:29.549Z,16.47
2016-12-09T03:22:39.224Z,16.28
2016-12-09T03:23:49.490Z,16.09
2016-12-09T03:24:59.138Z,16.09
2016-12-09T03:26:08.786Z,16.47
2016-12-09T03:27:19.355Z,16.57
2016-12-09T03:28:29.307Z,16.38
2016-12-09T03:29:39.256Z,16.47
2016-12-09T03:30:49.211Z,16.47
2016-12-09T03:31:59.166Z,16.57
2016-12-09T03:33:09.726Z,16.47
2016-12-09T03:34:19.682Z,16.57
2016-12-09T03:35:29.979Z,16.38
2016-12-09T03:36:40.241Z,16.38
2016-12-09T03:37:49.889Z,16.38
2016-12-09T03:39:00.146Z,16.28
2016-12-09T03:40:10.440Z,16.38
2016-12-09T03:41:20.091Z,16.38
2016-12-09T03:42:30.039Z,16.38
2016-12-09T03:43:39.995Z,16.28
2016-12-09T03:44:50.555Z,16.38
2016-12-09T03:46:00.536Z,16.57
2016-12-09T03:47:10.485Z,16.47
2016-12-09T03:48:20.446Z,16.47
2016-12-09T03:49:30.088Z,16.67
2016-12-09T03:50:40.347Z,16.38
2016-12-09T03:51:50.622Z,16.57
2016-12-09T03:53:00.894Z,16.57
2016-12-09T03:54:11.175Z,16.28
2016-12-09T03:55:21.447Z,16.38
2016-12-09T03:56:32.014Z,16.67
2016-12-09T03:57:42.283Z,16.57
2016-12-09T03:58:52.240Z,16.47
2016-12-09T04:00:02.202Z,16.57
2016-12-09T04:01:12.160Z,16.57
2016-12-09T04:02:22.428Z,16.57
2016-12-09T04:03:32.387Z,16.47
2016-12-09T04:04:41.727Z,16.57
2016-12-09T04:05:51.698Z,16.38
2016-12-09T04:07:01.650Z,16.38
2016-12-09T04:08:11.320Z,16.38
2016-12-09T04:09:21.627Z,16.57
2016-12-09T04:10:31.576Z,16.57
2016-12-09T04:11:41.841Z,16.38
2016-12-09T04:12:52.119Z,16.38
2016-12-09T04:14:02.378Z,16.47
2016-12-09T04:15:12.645Z,16.57
2016-12-09T04:16:22.310Z,16.38
2016-12-09T04:17:32.586Z,16.57
2016-12-09T04:18:42.551Z,16.57
2016-12-09T04:19:53.787Z,16.38
2016-12-09T04:21:03.755Z,16.47
2016-12-09T04:22:13.406Z,16.67
2016-12-09T04:23:23.690Z,16.57
2016-12-09T04:24:33.959Z,16.57
2016-12-09T04:25:44.558Z,16.47
2016-12-09T04:26:54.858Z,16.67
2016-12-09T04:28:05.146Z,16.47
2016-12-09T04:29:14.800Z,16.47
2016-12-09T04:30:24.746Z,16.57
2016-12-09T04:31:34.746Z,16.67
2016-12-09T04:32:44.698Z,16.38
2016-12-09T04:33:54.352Z,16.47
2016-12-09T04:35:04.617Z,16.47
2016-12-09T04:36:14.582Z,16.38
2016-12-09T04:37:25.155Z,16.47
2016-12-09T04:38:35.113Z,16.57
2016-12-09T04:39:44.769Z,16.57
2016-12-09T04:40:54.720Z,16.86
2016-12-09T04:42:04.992Z,16.77
2016-12-09T04:43:15.245Z,16.67
2016-12-09T04:44:25.196Z,16.86
2016-12-09T04:45:35.151Z,16.86
2016-12-09T04:46:44.790Z,16.77
2016-12-09T04:47:55.056Z,16.86
2016-12-09T04:49:05.622Z,16.86
2016-12-09T04:50:15.587Z,16.67
2016-12-09T04:51:25.542Z,16.67
2016-12-09T04:52:35.808Z,16.77
2016-12-09T04:53:46.079Z,16.77
2016-12-09T04:54:56.640Z,16.86
2016-12-09T04:56:06.591Z,16.67
2016-12-09T04:57:16.550Z,16.67
2016-12-09T04:58:26.518Z,16.86
2016-12-09T04:59:36.476Z,16.77
2016-12-09T05:00:46.745Z,16.86
2016-12-09T05:01:57.010Z,16.86
2016-12-09T05:03:06.968Z,16.86
2016-12-09T05:04:17.228Z,16.86
2016-12-09T05:05:27.181Z,17.15
2016-12-09T05:06:37.449Z,16.96
2016-12-09T05:07:47.418Z,17.25
2016-12-09T05:08:57.381Z,17.44
2016-12-09T05:10:07.637Z,17.35
2016-12-09T05:11:17.894Z,17.63
2016-12-09T05:12:28.466Z,17.63
2016-12-09T05:13:38.123Z,17.54
2016-12-09T05:14:48.082Z,17.54
2016-12-09T05:15:57.724Z,17.63
2016-12-09T05:17:07.683Z,17.63
2016-12-09T05:18:17.941Z,17.73
2016-12-09T05:19:28.196Z,17.63
2016-12-09T05:20:37.858Z,17.44
2016-12-09T05:21:48.146Z,17.92
2016-12-09T05:22:58.414Z,17.63
2016-12-09T05:24:08.674Z,17.82
2016-12-09T05:25:18.635Z,17.54
2016-12-09T05:26:28.895Z,17.73
2016-12-09T05:27:38.840Z,17.82
2016-12-09T05:28:49.132Z,17.54
2016-12-09T05:29:59.397Z,18.02
2016-12-09T05:31:09.666Z,17.73
2016-12-09T05:32:19.932Z,17.73
2016-12-09T05:33:30.195Z,17.82
2016-12-09T05:34:40.469Z,17.82
2016-12-09T05:35:50.112Z,17.82
2016-12-09T05:37:00.390Z,17.73
2016-12-09T05:38:10.342Z,17.73
2016-12-09T05:39:19.993Z,18.02
2016-12-09T05:40:29.949Z,17.92
2016-12-09T05:41:40.531Z,18.12
2016-12-09T05:42:50.496Z,17.92
2016-12-09T05:44:00.451Z,18.02
2016-12-09T05:45:10.438Z,18.02
2016-12-09T05:46:20.704Z,17.92
2016-12-09T05:47:31.277Z,17.92
2016-12-09T05:48:40.918Z,17.92
2016-12-09T05:49:51.187Z,17.92
2016-12-09T05:51:01.453Z,18.21
2016-12-09T05:52:11.718Z,18.12
2016-12-09T05:53:22.283Z,18.4
2016-12-09T05:54:32.557Z,18.4
2016-12-09T05:55:42.535Z,18.3
2016-12-09T05:56:52.801Z,18.4
2016-12-09T05:58:03.060Z,18.6
2016-12-09T05:59:13.313Z,18.4
2016-12-09T06:00:23.588Z,18.5
2016-12-09T06:01:33.871Z,18.7
2016-12-09T06:02:44.148Z,18.6
2016-12-09T06:03:53.793Z,18.7
2016-12-09T06:05:04.062Z,18.6
2016-12-09T06:06:14.021Z,18.6
2016-12-09T06:07:24.286Z,18.6
2016-12-09T06:08:33.931Z,18.6
2016-12-09T06:09:44.199Z,18.6
2016-12-09T06:10:54.482Z,18.7
2016-12-09T06:12:04.762Z,18.6
2016-12-09T06:13:14.760Z,18.6
2016-12-09T06:14:24.447Z,18.98
2016-12-09T06:15:34.738Z,18.98
2016-12-09T06:16:45.311Z,18.79
2016-12-09T06:17:55.573Z,18.98
2016-12-09T06:19:05.541Z,18.98
2016-12-09T06:20:15.806Z,18.98
2016-12-09T06:21:25.755Z,19.18
2016-12-09T06:22:36.005Z,18.88
2016-12-09T06:23:45.961Z,18.88
2016-12-09T06:24:55.928Z,18.98
2016-12-09T06:26:05.883Z,19.08
2016-12-09T06:27:15.873Z,19.18
2016-12-09T06:28:26.456Z,19.18
2016-12-09T06:29:36.424Z,19.27
2016-12-09T06:30:46.385Z,18.79
2016-12-09T06:31:56.666Z,18.98
2016-12-09T06:33:06.948Z,19.27
2016-12-09T06:34:17.205Z,19.08
2016-12-09T06:35:27.112Z,19.27
2016-12-09T06:36:37.079Z,19.27
2016-12-09T06:37:47.044Z,18.98
2016-12-09T06:38:57.016Z,19.18
2016-12-09T06:40:07.307Z,19.37
2016-12-09T06:41:17.296Z,19.27
2016-12-09T06:42:27.259Z,19.37
2016-12-09T06:43:37.240Z,19.37
2016-12-09T06:44:46.606Z,19.65
2016-12-09T06:45:57.323Z,19.46
2016-12-09T06:47:07.278Z,19.37
2016-12-09T06:48:17.252Z,19.65
2016-12-09T06:49:27.220Z,19.37
2016-12-09T06:50:37.540Z,19.65
2016-12-09T06:51:48.122Z,19.56
2016-12-09T06:52:58.400Z,19.56
2016-12-09T06:54:08.679Z,19.37
2016-12-09T06:55:18.654Z,19.46
2016-12-09T06:56:28.924Z,19.46
2016-12-09T06:57:39.188Z,19.56
2016-12-09T06:58:48.839Z,19.46
2016-12-09T06:59:58.800Z,19.46
2016-12-09T07:01:09.070Z,19.65
2016-12-09T07:02:19.336Z,19.56
2016-12-09T07:03:29.608Z,19.56
2016-12-09T07:04:39.246Z,19.75
2016-12-09T07:05:49.217Z,19.56
2016-12-09T07:06:59.166Z,19.46
2016-12-09T07:08:09.437Z,19.65
2016-12-09T07:09:20.046Z,19.75
2016-12-09T07:10:30.311Z,19.75
2016-12-09T07:11:40.583Z,19.85
2016-12-09T07:12:50.860Z,19.65
2016-12-09T07:14:00.833Z,19.75
2016-12-09T07:15:10.813Z,20.04
2016-12-09T07:16:21.101Z,19.75
2016-12-09T07:17:31.369Z,19.75
2016-12-09T07:18:41.023Z,19.95
2016-12-09T07:19:51.300Z,19.75
2016-12-09T07:21:01.859Z,19.85
2016-12-09T07:22:11.517Z,19.85
2016-12-09T07:23:21.805Z,19.75
2016-12-09T07:24:31.771Z,19.75
2016-12-09T07:25:41.736Z,19.75
2016-12-09T07:26:51.715Z,19.95
2016-12-09T07:28:02.009Z,20.04
2016-12-09T07:29:12.294Z,19.65
2016-12-09T07:30:22.274Z,19.95
2016-12-09T07:31:32.236Z,19.95
2016-12-09T07:32:42.514Z,20.04
2016-12-09T07:33:52.185Z,20.04
2016-12-09T07:35:02.132Z,20.04
2016-12-09T07:36:11.804Z,20.14
2016-12-09T07:37:22.117Z,19.65
2016-12-09T07:38:32.734Z,20.14
2016-12-09T07:39:42.703Z,20.14
2016-12-09T07:40:52.977Z,20.23
2016-12-09T07:42:03.261Z,20.23
2016-12-09T07:43:13.589Z,20.43
2016-12-09T07:44:23.585Z,20.43
2016-12-09T07:45:33.573Z,20.53
2016-12-09T07:46:43.281Z,20.62
2016-12-09T07:47:53.559Z,20.23
2016-12-09T07:49:03.835Z,20.43
2016-12-09T07:50:14.420Z,20.23
2016-12-09T07:51:24.388Z,20.23
2016-12-09T07:52:34.363Z,20.23
2016-12-09T07:53:44.653Z,20.43
2016-12-09T07:54:54.936Z,20.33
2016-12-09T07:56:04.915Z,20.23
2016-12-09T07:57:14.893Z,20.23
2016-12-09T07:58:25.097Z,20.62
2016-12-09T07:59:35.385Z,20.72
2016-12-09T08:00:45.972Z,20.23
2016-12-09T08:01:55.935Z,20.62
2016-12-09T08:03:05.916Z,20.62
2016-12-09T08:04:15.885Z,20.81
2016-12-09T08:05:26.019Z,20.73
2016-12-09T08:06:36.289Z,20.72
2016-12-09T08:07:46.602Z,20.73
2016-12-09T08:08:56.564Z,20.81
2016-12-09T08:10:06.524Z,20.62
2016-12-09T08:11:16.489Z,20.43
2016-12-09T08:12:27.050Z,21.01
2016-12-09T08:13:37.335Z,20.62
2016-12-09T08:14:47.296Z,20.81
2016-12-09T08:15:57.565Z,20.62
2016-12-09T08:17:07.543Z,20.83
2016-12-09T08:18:17.853Z,20.53
2016-12-09T08:19:28.144Z,20.91
2016-12-09T08:20:38.455Z,20.91
2016-12-09T08:21:48.126Z,21.01
2016-12-09T08:22:58.074Z,21.1
2016-12-09T08:24:08.394Z,21.2
2016-12-09T08:25:18.916Z,21.01
2016-12-09T08:26:28.887Z,21.1
2016-12-09T08:27:39.152Z,21.1
2016-12-09T08:28:49.466Z,20.72
2016-12-09T08:30:00.048Z,21.3
2016-12-09T08:31:10.326Z,20.72
2016-12-09T08:32:19.969Z,20.62
2016-12-09T08:33:29.930Z,20.91
2016-12-09T08:34:40.212Z,21.01
2016-12-09T08:35:50.779Z,21.1
2016-12-09T08:37:00.737Z,21.3
2016-12-09T08:38:11.024Z,21.2
2016-12-09T08:39:21.298Z,21.21
2016-12-09T08:40:31.278Z,20.73
2016-12-09T08:41:41.550Z,20.62
2016-12-09T08:42:51.822Z,21.1
2016-12-09T08:44:02.097Z,21.11
2016-12-09T08:45:12.079Z,20.92
2016-12-09T08:46:22.396Z,21.01
2016-12-09T08:47:32.056Z,20.81
2016-12-09T08:48:42.366Z,21.01
2016-12-09T08:49:52.325Z,20.91
2016-12-09T08:51:02.293Z,20.92
2016-12-09T08:52:12.882Z,21.31
2016-12-09T08:53:25.407Z,20.91
2016-12-09T08:54:35.695Z,21.1
2016-12-09T08:55:45.676Z,21.11
2016-12-09T08:56:55.676Z,20.91
2016-12-09T08:58:05.952Z,21.21
2016-12-09T08:59:15.928Z,21.31
2016-12-09T09:00:26.248Z,20.81
2016-12-09T09:01:36.230Z,21.11
2016-12-09T09:02:45.901Z,21.31
2016-12-09T09:03:56.512Z,21.21
2016-12-09T09:05:06.799Z,21.21
2016-12-09T09:06:16.768Z,21.2
2016-12-09T09:07:26.413Z,21.11
2016-12-09T09:08:36.365Z,21.5
2016-12-09T09:09:46.938Z,21.69
2016-12-09T09:10:57.223Z,21.3
2016-12-09T09:12:07.190Z,21.4
2016-12-09T09:13:17.508Z,21.48
2016-12-09T09:14:27.773Z,21.5
2016-12-09T09:15:38.039Z,21.79
2016-12-09T09:16:48.308Z,21.59
2016-12-09T09:17:57.969Z,21.79
2016-12-09T09:19:08.442Z,21.5
2016-12-09T09:20:18.425Z,21.4
2016-12-09T09:21:28.724Z,21.78
2016-12-09T09:22:39.009Z,21.79
2016-12-09T09:23:48.993Z,21.69
2016-12-09T09:24:58.970Z,21.79
2016-12-09T09:26:08.941Z,21.79
2016-12-09T09:27:19.211Z,21.68
2016-12-09T09:28:27.973Z,21.59
2016-12-09T09:29:37.931Z,21.79
2016-12-09T09:30:47.586Z,21.59
2016-12-09T09:31:57.586Z,21.78
2016-12-09T09:33:07.909Z,21.78
2016-12-09T09:34:17.915Z,21.78
2016-12-09T09:35:28.229Z,21.79
2016-12-09T09:36:37.885Z,22.17
2016-12-09T09:37:47.553Z,21.79
2016-12-09T09:38:58.149Z,21.79
2016-12-09T09:40:08.148Z,21.97
2016-12-09T09:41:18.123Z,21.69
2016-12-09T09:42:28.402Z,21.88
2016-12-09T09:43:38.354Z,21.88
2016-12-09T09:44:48.937Z,21.88
2016-12-09T09:45:58.927Z,22.06
2016-12-09T09:47:08.920Z,22.08
2016-12-09T09:48:19.282Z,21.88
2016-12-09T09:49:29.618Z,22.08
2016-12-09T09:50:40.276Z,21.88
2016-12-09T09:51:50.573Z,21.98
2016-12-09T09:53:00.587Z,21.98
2016-12-09T09:54:10.598Z,21.98
2016-12-09T09:55:20.921Z,22.17
2016-12-09T09:56:31.547Z,22.27
2016-12-09T09:57:41.575Z,22.17
2016-12-09T09:58:51.575Z,22.36
2016-12-09T10:00:01.593Z,22.36
2016-12-09T10:01:10.989Z,22.27
2016-12-09T10:02:21.558Z,22.27
2016-12-09T10:03:31.535Z,22.46
2016-12-09T10:04:41.526Z,22.27
2016-12-09T10:05:51.499Z,21.98
2016-12-09T10:07:01.494Z,22.17
2016-12-09T10:08:11.481Z,22.17
2016-12-09T10:09:21.493Z,21.98
2016-12-09T10:10:31.465Z,21.98
2016-12-09T10:11:41.358Z,21.98
2016-12-09T10:12:51.342Z,22.27
2016-12-09T10:14:01.914Z,22.17
2016-12-09T10:15:11.566Z,21.98
2016-12-09T10:16:21.240Z,22.27
2016-12-09T10:17:30.590Z,22.08
2016-12-09T10:18:40.897Z,22.27
2016-12-09T10:19:51.486Z,22.56
2016-12-09T10:21:01.476Z,22.56
2016-12-09T10:22:11.777Z,22.46
2016-12-09T10:23:21.460Z,22.56
2016-12-09T10:24:31.444Z,22.66
2016-12-09T10:25:42.040Z,22.56
2016-12-09T10:26:52.340Z,22.46
2016-12-09T10:28:02.648Z,22.56
2016-12-09T10:29:12.623Z,22.56
2016-12-09T10:30:22.593Z,22.56
2016-12-09T10:31:32.559Z,22.46
2016-12-09T10:32:42.261Z,22.66
2016-12-09T10:33:52.251Z,22.56
2016-12-09T10:35:02.242Z,22.56
2016-12-09T10:36:12.561Z,22.85
2016-12-09T10:37:22.551Z,22.85
2016-12-09T10:38:32.523Z,22.75
2016-12-09T10:39:42.802Z,22.94
2016-12-09T10:40:53.078Z,22.85
2016-12-09T10:42:03.053Z,22.75
2016-12-09T10:43:13.334Z,22.75
2016-12-09T10:44:23.308Z,22.85
2016-12-09T10:45:32.969Z,22.94
2016-12-09T10:46:43.241Z,22.85
2016-12-09T10:47:53.515Z,22.85
2016-12-09T10:49:04.127Z,22.85
2016-12-09T10:50:14.096Z,23.04
2016-12-09T10:51:23.772Z,22.94
2016-12-09T10:52:33.426Z,22.66
2016-12-09T10:53:43.404Z,22.75
2016-12-09T10:54:53.673Z,22.94
2016-12-09T10:56:03.986Z,22.75
2016-12-09T10:57:13.952Z,23.04
2016-12-09T10:58:23.956Z,22.85
2016-12-09T10:59:34.301Z,22.94
2016-12-09T11:00:44.870Z,22.85
2016-12-09T11:01:54.851Z,22.94
2016-12-09T11:03:04.521Z,23.14
2016-12-09T11:04:14.298Z,23.14
2016-12-09T11:05:23.997Z,23.14
2016-12-09T11:06:34.598Z,23.04
2016-12-09T11:07:44.585Z,23.43
2016-12-09T11:08:54.851Z,23.33
2016-12-09T11:10:05.130Z,23.14
2016-12-09T11:11:15.404Z,23.33
2016-12-09T11:12:25.357Z,23.33
2016-12-09T11:13:35.668Z,23.24
2016-12-09T11:14:45.968Z,23.24
2016-12-09T11:15:56.259Z,23.24
2016-12-09T11:17:06.556Z,23.14
2016-12-09T11:18:16.825Z,23.33
2016-12-09T11:19:26.179Z,23.33
2016-12-09T11:20:36.460Z,23.72
2016-12-09T11:21:46.745Z,23.72
2016-12-09T11:22:56.708Z,23.91
2016-12-09T11:24:07.298Z,23.62
2016-12-09T11:25:17.289Z,23.81
2016-12-09T11:26:27.250Z,23.72
2016-12-09T11:27:36.926Z,23.72
2016-12-09T11:28:47.244Z,23.81
2016-12-09T11:29:57.204Z,23.91
2016-12-09T11:31:07.515Z,23.81
2016-12-09T11:32:17.809Z,23.72
2016-12-09T11:33:28.167Z,23.91
2016-12-09T11:34:38.478Z,24.1
2016-12-09T11:35:48.786Z,23.81
2016-12-09T11:36:58.769Z,24.01
2016-12-09T11:38:08.734Z,23.72
2016-12-09T11:39:19.012Z,23.91
2016-12-09T11:40:29.284Z,24.01
2016-12-09T11:41:39.586Z,23.91
2016-12-09T11:42:49.258Z,24.01
2016-12-09T11:43:59.242Z,24.01
2016-12-09T11:45:09.239Z,23.91
2016-12-09T11:46:19.208Z,24.2
2016-12-09T11:47:29.498Z,23.91
2016-12-09T11:48:39.796Z,24.39
2016-12-09T11:49:50.113Z,23.91
2016-12-09T11:51:00.411Z,24.1
2016-12-09T11:52:10.408Z,24.1
2016-12-09T11:53:20.065Z,24.1
2016-12-09T11:54:29.448Z,24.2
2016-12-09T11:55:38.792Z,24.39
2016-12-09T11:56:48.780Z,23.91
2016-12-09T11:57:59.070Z,24.2
2016-12-09T11:59:09.682Z,24.49
2016-12-09T12:00:19.963Z,23.91
2016-12-09T12:01:30.235Z,23.91
2016-12-09T12:02:40.219Z,24.01
2016-12-09T12:03:50.200Z,24.49
2016-12-09T12:05:00.782Z,24.29
2016-12-09T12:06:11.043Z,24.49
2016-12-09T12:07:21.017Z,24.2
2016-12-09T12:08:31.317Z,24.1
2016-12-09T12:09:41.607Z,24.2
2016-12-09T12:10:52.194Z,24.39
2016-12-09T12:12:02.466Z,24.39
2016-12-09T12:13:12.431Z,24.58
2016-12-09T12:14:22.719Z,24.1
2016-12-09T12:15:33.025Z,24.49
2016-12-09T12:16:43.606Z,24.29
2016-12-09T12:17:53.867Z,24.49
2016-12-09T12:19:03.836Z,24.58
2016-12-09T12:20:14.140Z,24.49
2016-12-09T12:21:23.800Z,24.29
2016-12-09T12:22:34.479Z,24.97
2016-12-09T12:23:44.736Z,24.97
2016-12-09T12:24:54.345Z,24.77
2016-12-09T12:26:04.008Z,24.97
2016-12-09T12:27:13.676Z,24.87
2016-12-09T12:28:23.707Z,24.58
2016-12-09T12:29:33.704Z,24.39
2016-12-09T12:30:43.375Z,24.97
2016-12-09T12:31:53.048Z,24.87
2016-12-09T12:33:02.730Z,24.87
2016-12-09T12:34:13.043Z,24.87
2016-12-09T12:35:23.351Z,24.77
2016-12-09T12:36:33.352Z,24.97
2016-12-09T12:37:43.642Z,24.87
2016-12-09T12:38:54.250Z,24.58
2016-12-09T12:40:04.234Z,24.49
2016-12-09T12:41:14.508Z,24.58
2016-12-09T12:42:24.704Z,24.58
2016-12-09T12:43:34.988Z,24.49
2016-12-09T12:44:45.658Z,24.2
2016-12-09T12:45:55.624Z,24.2
2016-12-09T12:47:05.900Z,24.77
2016-12-09T12:48:16.159Z,24.97
2016-12-09T12:49:26.438Z,25.07
2016-12-09T12:50:37.046Z,25.16
2016-12-09T12:51:46.712Z,25.16
2016-12-09T12:52:57.051Z,25.27
2016-12-09T12:54:07.356Z,25.56
2016-12-09T12:55:17.343Z,25.95
2016-12-09T12:56:27.640Z,25.95
2016-12-09T12:57:37.294Z,25.66
2016-12-09T12:58:47.268Z,26.33
2016-12-09T12:59:57.551Z,26.23
2016-12-09T13:01:07.841Z,26.62
2016-12-09T13:02:17.799Z,26.53
2016-12-09T13:03:28.090Z,26.72
2016-12-09T13:04:37.782Z,26.62
2016-12-09T13:05:47.761Z,26.81
2016-12-09T13:06:57.755Z,26.81
2016-12-09T13:08:08.021Z,27.2
2016-12-09T13:09:18.008Z,27.11
2016-12-09T13:10:27.694Z,27.68
2016-12-09T13:11:37.390Z,27.11
2016-12-09T13:12:47.051Z,27.39
2016-12-09T13:13:57.310Z,27.2
2016-12-09T13:15:07.566Z,27.2
2016-12-09T13:16:17.856Z,27.39
2016-12-09T13:17:28.139Z,27.29
2016-12-09T13:18:38.114Z,27.29
2016-12-09T13:19:48.683Z,27.11
2016-12-09T13:20:58.677Z,26.81
2016-12-09T13:22:08.949Z,26.72
2016-12-09T13:23:19.243Z,26.91
2016-12-09T13:24:29.217Z,26.91
2016-12-09T13:25:39.498Z,26.62
2016-12-09T13:26:49.482Z,26.62
2016-12-09T13:27:59.451Z,26.43
2016-12-09T13:29:09.789Z,26.53
2016-12-09T13:30:19.813Z,26.62
2016-12-09T13:31:30.118Z,26.43
2016-12-09T13:32:40.407Z,26.33
2016-12-09T13:33:50.395Z,26.33
2016-12-09T13:35:00.692Z,26.53
2016-12-09T13:36:10.996Z,26.43
2016-12-09T13:37:21.284Z,26.53
2016-12-09T13:38:30.964Z,26.33
2016-12-09T13:39:41.251Z,26.43
2016-12-09T13:40:51.227Z,26.33
2016-12-09T13:42:01.815Z,26.23
2016-12-09T13:43:11.485Z,26.23
2016-12-09T13:44:22.090Z,26.04
2016-12-09T13:45:31.754Z,26.33
2016-12-09T13:46:41.728Z,26.23
2016-12-09T13:47:52.305Z,26.23
2016-12-09T13:49:02.573Z,26.23
2016-12-09T13:50:13.063Z,26.33
2016-12-09T13:51:22.417Z,26.23
2016-12-09T13:52:32.077Z,26.14
2016-12-09T13:53:42.378Z,26.14
2016-12-09T13:54:52.334Z,26.14
2016-12-09T13:56:02.618Z,26.14
2016-12-09T13:57:12.583Z,26.23
2016-12-09T13:58:22.874Z,26.23
2016-12-09T13:59:33.447Z,26.04
2016-12-09T14:00:43.732Z,26.33
2016-12-09T14:01:53.696Z,26.23
2016-12-09T14:03:03.985Z,26.14
2016-12-09T14:04:14.260Z,26.03
2016-12-09T14:05:24.833Z,26.32
2016-12-09T14:06:35.120Z,26.04
2016-12-09T14:07:45.403Z,26.12
2016-12-09T14:08:55.383Z,26.12
2016-12-09T14:10:05.674Z,25.95
2016-12-09T14:11:16.270Z,25.93
2016-12-09T14:12:26.247Z,26.04
2016-12-09T14:13:35.915Z,26.04
2016-12-09T14:14:45.895Z,25.74
2016-12-09T14:15:55.879Z,25.74
2016-12-09T14:17:05.853Z,25.74
2016-12-09T14:18:16.141Z,25.95
2016-12-09T14:19:26.122Z,25.84
2016-12-09T14:20:36.411Z,25.74
2016-12-09T14:21:46.394Z,25.74
2016-12-09T14:22:56.987Z,25.93
2016-12-09T14:24:07.271Z,25.84
2016-12-09T14:25:17.255Z,25.75
2016-12-09T14:26:27.530Z,25.75
2016-12-09T14:27:38.142Z,26.12
2016-12-09T14:28:48.104Z,26.04
2016-12-09T14:29:58.401Z,26.33
2016-12-09T14:31:08.366Z,26.62
2016-12-09T14:32:18.635Z,26.62
2016-12-09T14:33:29.215Z,26.72
2016-12-09T14:34:39.185Z,26.91
2016-12-09T14:35:49.473Z,26.72
2016-12-09T14:36:59.751Z,26.53
2016-12-09T14:38:10.043Z,26.72
2016-12-09T14:39:20.648Z,26.81
2016-12-09T14:40:30.779Z,26.62
2016-12-09T14:41:40.747Z,26.53
2016-12-09T14:42:50.718Z,26.62
2016-12-09T14:44:00.999Z,26.53
2016-12-09T14:45:11.583Z,26.53
2016-12-09T14:46:21.563Z,26.43
2016-12-09T14:47:31.550Z,26.33
2016-12-09T14:48:41.531Z,26.14
2016-12-09T14:49:51.570Z,26.23
2016-12-09T14:51:01.909Z,26.23
2016-12-09T14:52:12.201Z,26.23
2016-12-09T14:53:22.491Z,26.33
2016-12-09T14:54:32.792Z,26.23
2016-12-09T14:55:42.770Z,26.33
2016-12-09T14:56:53.342Z,26.33
2016-12-09T14:58:03.621Z,26.23
2016-12-09T14:59:13.909Z,26.14
2016-12-09T15:00:23.887Z,26.23
2016-12-09T15:01:33.865Z,26.14
2016-12-09T15:02:44.450Z,26.04
2016-12-09T15:03:54.735Z,26.14
2016-12-09T15:05:04.743Z,26.33